sensor_id;sensor_type;location;lat;lon;timestamp;pressure;altitude;pressure_sealevel;temperature;humidity
38912;BME280;28444;48.056;14.408;2023-04-28T00:01:29;97754.63;;;6.63;85.63
38912;BME280;28444;48.056;14.408;2023-04-28T00:04:16;97761.72;;;6.66;85.54
38912;BME280;28444;48.056;14.408;2023-04-28T00:07:04;97762.66;;;6.68;85.81
38912;BME280;28444;48.056;14.408;2023-04-28T00:09:50;97747.94;;;6.64;85.55
38912;BME280;28444;48.056;14.408;2023-04-28T00:12:37;97756.56;;;6.55;86.11
38912;BME280;28444;48.056;14.408;2023-04-28T00:15:24;97755.25;;;6.69;85.96
38912;BME280;28444;48.056;14.408;2023-04-28T00:18:11;97748.25;;;6.60;85.90
38912;BME280;28444;48.056;14.408;2023-04-28T00:20:59;97742.03;;;6.52;85.96
38912;BME280;28444;48.056;14.408;2023-04-28T00:23:47;97743.31;;;6.51;86.51
38912;BME280;28444;48.056;14.408;2023-04-28T00:26:34;97745.47;;;6.53;86.52
38912;BME280;28444;48.056;14.408;2023-04-28T00:29:21;97738.06;;;6.53;86.65
38912;BME280;28444;48.056;14.408;2023-04-28T00:32:08;97737.88;;;6.51;86.30
38912;BME280;28444;48.056;14.408;2023-04-28T00:34:56;97738.72;;;6.46;86.96
38912;BME280;28444;48.056;14.408;2023-04-28T00:37:43;97739.03;;;6.42;86.42
38912;BME280;28444;48.056;14.408;2023-04-28T00:40:34;97744.28;;;6.40;87.23
38912;BME280;28444;48.056;14.408;2023-04-28T00:43:21;97744.72;;;6.31;86.85
38912;BME280;28444;48.056;14.408;2023-04-28T00:46:09;97746.88;;;6.25;87.21
38912;BME280;28444;48.056;14.408;2023-04-28T00:48:57;97746.53;;;6.29;88.06
38912;BME280;28444;48.056;14.408;2023-04-28T00:51:44;97738.47;;;6.36;87.81
38912;BME280;28444;48.056;14.408;2023-04-28T00:54:32;97744.94;;;6.33;87.17
38912;BME280;28444;48.056;14.408;2023-04-28T00:57:20;97743.69;;;6.34;87.00
38912;BME280;28444;48.056;14.408;2023-04-28T01:00:08;97739.69;;;6.35;87.58
38912;BME280;28444;48.056;14.408;2023-04-28T01:02:56;97740.03;;;6.32;87.00
38912;BME280;28444;48.056;14.408;2023-04-28T01:05:43;97733.16;;;6.31;86.84
38912;BME280;28444;48.056;14.408;2023-04-28T01:08:31;97726.25;;;6.30;87.45
38912;BME280;28444;48.056;14.408;2023-04-28T01:11:18;97734.19;;;6.27;87.70
38912;BME280;28444;48.056;14.408;2023-04-28T01:14:05;97724.81;;;6.29;86.98
38912;BME280;28444;48.056;14.408;2023-04-28T01:16:52;97730.97;;;6.29;87.37
38912;BME280;28444;48.056;14.408;2023-04-28T01:19:40;97739.13;;;6.29;87.18
38912;BME280;28444;48.056;14.408;2023-04-28T01:22:27;97738.38;;;6.29;87.17
38912;BME280;28444;48.056;14.408;2023-04-28T01:25:14;97732.09;;;6.34;86.88
38912;BME280;28444;48.056;14.408;2023-04-28T01:28:01;97737.53;;;6.34;87.42
38912;BME280;28444;48.056;14.408;2023-04-28T01:30:48;97730.63;;;6.33;87.57
38912;BME280;28444;48.056;14.408;2023-04-28T01:33:35;97732.03;;;6.26;86.95
38912;BME280;28444;48.056;14.408;2023-04-28T01:36:22;97727.63;;;6.23;88.00
38912;BME280;28444;48.056;14.408;2023-04-28T01:39:09;97720.88;;;6.16;88.45
38912;BME280;28444;48.056;14.408;2023-04-28T01:41:56;97729.66;;;6.09;88.66
38912;BME280;28444;48.056;14.408;2023-04-28T01:44:43;97725.91;;;6.12;88.83
38912;BME280;28444;48.056;14.408;2023-04-28T01:47:30;97724.44;;;6.11;88.85
38912;BME280;28444;48.056;14.408;2023-04-28T01:50:17;97712.31;;;6.12;89.19
38912;BME280;28444;48.056;14.408;2023-04-28T01:53:04;97708.88;;;6.12;88.70
38912;BME280;28444;48.056;14.408;2023-04-28T01:55:52;97708.34;;;6.13;89.00
38912;BME280;28444;48.056;14.408;2023-04-28T01:58:39;97710.16;;;6.11;88.27
38912;BME280;28444;48.056;14.408;2023-04-28T02:01:26;97706.56;;;6.16;88.80
38912;BME280;28444;48.056;14.408;2023-04-28T02:04:13;97697.66;;;6.29;89.51
38912;BME280;28444;48.056;14.408;2023-04-28T02:07:00;97691.47;;;6.28;88.28
38912;BME280;28444;48.056;14.408;2023-04-28T02:09:48;97690.63;;;6.33;88.12
38912;BME280;28444;48.056;14.408;2023-04-28T02:12:35;97692.81;;;6.14;87.93
38912;BME280;28444;48.056;14.408;2023-04-28T02:15:22;97696.41;;;5.95;89.21
38912;BME280;28444;48.056;14.408;2023-04-28T02:18:10;97699.53;;;5.86;90.87
38912;BME280;28444;48.056;14.408;2023-04-28T02:20:57;97703.94;;;5.76;90.90
38912;BME280;28444;48.056;14.408;2023-04-28T02:23:44;97705.50;;;5.85;90.62
38912;BME280;28444;48.056;14.408;2023-04-28T02:26:32;97710.50;;;5.94;90.48
38912;BME280;28444;48.056;14.408;2023-04-28T02:29:21;97702.97;;;5.87;90.54
38912;BME280;28444;48.056;14.408;2023-04-28T02:32:10;97708.94;;;5.85;90.56
38912;BME280;28444;48.056;14.408;2023-04-28T02:34:57;97697.88;;;5.83;90.07
38912;BME280;28444;48.056;14.408;2023-04-28T02:37:44;97699.31;;;5.84;90.30
38912;BME280;28444;48.056;14.408;2023-04-28T02:40:32;97699.75;;;5.88;89.70
38912;BME280;28444;48.056;14.408;2023-04-28T02:43:19;97705.41;;;5.77;90.64
38912;BME280;28444;48.056;14.408;2023-04-28T02:46:06;97708.13;;;5.77;90.36
38912;BME280;28444;48.056;14.408;2023-04-28T02:48:53;97708.66;;;5.75;91.35
38912;BME280;28444;48.056;14.408;2023-04-28T02:51:40;97700.41;;;5.81;90.48
38912;BME280;28444;48.056;14.408;2023-04-28T02:54:27;97699.97;;;5.77;90.80
38912;BME280;28444;48.056;14.408;2023-04-28T02:57:14;97697.25;;;5.77;91.34
38912;BME280;28444;48.056;14.408;2023-04-28T03:00:01;97698.81;;;5.86;91.21
38912;BME280;28444;48.056;14.408;2023-04-28T03:02:48;97698.94;;;5.80;91.43
38912;BME280;28444;48.056;14.408;2023-04-28T03:05:35;97690.69;;;5.86;91.05
38912;BME280;28444;48.056;14.408;2023-04-28T03:08:22;97695.66;;;5.95;90.36
38912;BME280;28444;48.056;14.408;2023-04-28T03:11:09;97688.25;;;5.95;90.64
38912;BME280;28444;48.056;14.408;2023-04-28T03:13:57;97691.72;;;5.96;90.68
38912;BME280;28444;48.056;14.408;2023-04-28T03:16:44;97697.66;;;5.94;90.20
38912;BME280;28444;48.056;14.408;2023-04-28T03:19:31;97694.84;;;5.87;90.76
38912;BME280;28444;48.056;14.408;2023-04-28T03:22:19;97686.63;;;5.92;91.37
38912;BME280;28444;48.056;14.408;2023-04-28T03:25:06;97679.59;;;5.97;91.64
38912;BME280;28444;48.056;14.408;2023-04-28T03:27:53;97677.94;;;5.94;91.11
38912;BME280;28444;48.056;14.408;2023-04-28T03:30:40;97671.53;;;5.91;90.72
38912;BME280;28444;48.056;14.408;2023-04-28T03:33:27;97678.88;;;5.96;90.86
38912;BME280;28444;48.056;14.408;2023-04-28T03:36:14;97680.66;;;5.94;91.29
38912;BME280;28444;48.056;14.408;2023-04-28T03:39:02;97678.66;;;5.94;90.14
38912;BME280;28444;48.056;14.408;2023-04-28T03:41:49;97675.84;;;6.00;89.89
38912;BME280;28444;48.056;14.408;2023-04-28T03:44:36;97678.88;;;5.96;89.57
38912;BME280;28444;48.056;14.408;2023-04-28T03:47:23;97674.25;;;6.05;89.50
38912;BME280;28444;48.056;14.408;2023-04-28T03:50:10;97671.25;;;5.95;89.44
38912;BME280;28444;48.056;14.408;2023-04-28T03:52:59;97668.34;;;5.93;89.73
38912;BME280;28444;48.056;14.408;2023-04-28T03:55:46;97664.66;;;5.90;90.09
38912;BME280;28444;48.056;14.408;2023-04-28T03:58:33;97661.88;;;5.83;89.58
38912;BME280;28444;48.056;14.408;2023-04-28T04:01:20;97660.94;;;5.80;90.70
38912;BME280;28444;48.056;14.408;2023-04-28T04:04:07;97668.88;;;5.78;90.11
38912;BME280;28444;48.056;14.408;2023-04-28T04:06:55;97660.22;;;5.79;90.75
38912;BME280;28444;48.056;14.408;2023-04-28T04:09:42;97653.97;;;5.71;90.45
38912;BME280;28444;48.056;14.408;2023-04-28T04:12:29;97653.66;;;5.75;90.37
38912;BME280;28444;48.056;14.408;2023-04-28T04:15:16;97646.44;;;5.77;90.99
38912;BME280;28444;48.056;14.408;2023-04-28T04:18:03;97654.78;;;5.79;91.37
38912;BME280;28444;48.056;14.408;2023-04-28T04:20:50;97653.63;;;5.88;90.82
38912;BME280;28444;48.056;14.408;2023-04-28T04:23:40;97654.84;;;5.87;91.08
38912;BME280;28444;48.056;14.408;2023-04-28T04:26:29;97647.75;;;5.84;90.95
38912;BME280;28444;48.056;14.408;2023-04-28T04:29:16;97641.59;;;5.97;90.86
38912;BME280;28444;48.056;14.408;2023-04-28T04:32:03;97651.25;;;6.06;90.31
38912;BME280;28444;48.056;14.408;2023-04-28T04:34:50;97655.97;;;6.05;90.36
38912;BME280;28444;48.056;14.408;2023-04-28T04:37:38;97649.03;;;6.17;90.66
38912;BME280;28444;48.056;14.408;2023-04-28T04:40:25;97648.88;;;6.23;90.62
38912;BME280;28444;48.056;14.408;2023-04-28T04:43:12;97651.81;;;6.25;89.92
38912;BME280;28444;48.056;14.408;2023-04-28T04:45:59;97649.88;;;6.33;91.62
38912;BME280;28444;48.056;14.408;2023-04-28T04:48:46;97639.63;;;6.18;92.04
38912;BME280;28444;48.056;14.408;2023-04-28T04:51:33;97645.63;;;6.24;91.41
38912;BME280;28444;48.056;14.408;2023-04-28T04:54:20;97642.19;;;6.24;91.38
38912;BME280;28444;48.056;14.408;2023-04-28T04:57:07;97642.91;;;6.24;91.09
38912;BME280;28444;48.056;14.408;2023-04-28T04:59:54;97638.75;;;6.44;90.16
38912;BME280;28444;48.056;14.408;2023-04-28T05:02:41;97630.59;;;6.44;89.93
38912;BME280;28444;48.056;14.408;2023-04-28T05:05:28;97642.09;;;6.58;90.42
38912;BME280;28444;48.056;14.408;2023-04-28T05:08:16;97641.22;;;6.63;90.22
38912;BME280;28444;48.056;14.408;2023-04-28T05:11:03;97641.81;;;6.69;90.20
38912;BME280;28444;48.056;14.408;2023-04-28T05:13:50;97641.19;;;6.84;90.11
38912;BME280;28444;48.056;14.408;2023-04-28T05:16:37;97643.81;;;6.97;89.36
38912;BME280;28444;48.056;14.408;2023-04-28T05:19:25;97638.06;;;7.09;88.34
38912;BME280;28444;48.056;14.408;2023-04-28T05:22:12;97639.94;;;7.21;88.54
38912;BME280;28444;48.056;14.408;2023-04-28T05:25:00;97643.75;;;7.26;88.29
38912;BME280;28444;48.056;14.408;2023-04-28T05:27:47;97659.94;;;7.32;87.06
38912;BME280;28444;48.056;14.408;2023-04-28T05:30:34;97662.78;;;7.26;87.59
38912;BME280;28444;48.056;14.408;2023-04-28T05:33:21;97655.38;;;7.27;87.18
38912;BME280;28444;48.056;14.408;2023-04-28T05:36:09;97656.97;;;7.22;87.62
38912;BME280;28444;48.056;14.408;2023-04-28T05:38:56;97658.44;;;7.23;87.65
38912;BME280;28444;48.056;14.408;2023-04-28T05:41:43;97650.09;;;7.21;87.77
38912;BME280;28444;48.056;14.408;2023-04-28T05:44:30;97647.97;;;7.35;87.14
38912;BME280;28444;48.056;14.408;2023-04-28T05:47:17;97653.13;;;7.54;87.53
38912;BME280;28444;48.056;14.408;2023-04-28T05:50:05;97649.38;;;7.72;85.73
38912;BME280;28444;48.056;14.408;2023-04-28T05:52:52;97650.34;;;7.97;85.25
38912;BME280;28444;48.056;14.408;2023-04-28T05:55:39;97648.88;;;7.96;84.89
38912;BME280;28444;48.056;14.408;2023-04-28T05:58:26;97649.81;;;8.07;85.22
38912;BME280;28444;48.056;14.408;2023-04-28T06:01:13;97638.22;;;8.29;84.18
38912;BME280;28444;48.056;14.408;2023-04-28T06:04:00;97639.50;;;8.43;83.52
38912;BME280;28444;48.056;14.408;2023-04-28T06:06:48;97641.31;;;8.64;82.55
38912;BME280;28444;48.056;14.408;2023-04-28T06:09:36;97638.94;;;8.83;82.25
38912;BME280;28444;48.056;14.408;2023-04-28T06:12:23;97635.44;;;8.98;81.37
38912;BME280;28444;48.056;14.408;2023-04-28T06:15:10;97626.47;;;9.21;80.34
38912;BME280;28444;48.056;14.408;2023-04-28T06:17:57;97626.97;;;9.34;80.20
38912;BME280;28444;48.056;14.408;2023-04-28T06:20:44;97619.84;;;9.39;79.38
38912;BME280;28444;48.056;14.408;2023-04-28T06:23:32;97628.56;;;9.45;78.86
38912;BME280;28444;48.056;14.408;2023-04-28T06:26:19;97627.66;;;9.43;78.42
38912;BME280;28444;48.056;14.408;2023-04-28T06:29:06;97622.13;;;9.58;78.87
38912;BME280;28444;48.056;14.408;2023-04-28T06:31:53;97621.34;;;9.65;78.58
38912;BME280;28444;48.056;14.408;2023-04-28T06:34:43;97620.19;;;9.76;79.01
38912;BME280;28444;48.056;14.408;2023-04-28T06:37:30;97611.03;;;9.88;77.85
38912;BME280;28444;48.056;14.408;2023-04-28T06:40:17;97606.44;;;9.91;76.34
38912;BME280;28444;48.056;14.408;2023-04-28T06:43:05;97601.44;;;10.05;76.64
38912;BME280;28444;48.056;14.408;2023-04-28T06:45:52;97593.94;;;10.13;77.30
38912;BME280;28444;48.056;14.408;2023-04-28T06:48:39;97599.13;;;10.26;75.88
38912;BME280;28444;48.056;14.408;2023-04-28T06:51:26;97599.31;;;10.28;76.01
38912;BME280;28444;48.056;14.408;2023-04-28T06:54:14;97590.72;;;10.49;75.83
38912;BME280;28444;48.056;14.408;2023-04-28T06:57:02;97585.75;;;10.55;75.69
38912;BME280;28444;48.056;14.408;2023-04-28T06:59:49;97590.28;;;10.60;75.18
38912;BME280;28444;48.056;14.408;2023-04-28T07:02:36;97593.06;;;10.53;75.74
38912;BME280;28444;48.056;14.408;2023-04-28T07:05:24;97593.66;;;10.69;75.09
38912;BME280;28444;48.056;14.408;2023-04-28T07:08:11;97597.53;;;10.83;74.53
38912;BME280;28444;48.056;14.408;2023-04-28T07:10:59;97593.91;;;10.80;74.38
38912;BME280;28444;48.056;14.408;2023-04-28T07:13:50;97587.00;;;10.97;74.57
38912;BME280;28444;48.056;14.408;2023-04-28T07:16:37;97588.16;;;11.03;73.00
38912;BME280;28444;48.056;14.408;2023-04-28T07:19:24;97593.28;;;10.90;72.13
38912;BME280;28444;48.056;14.408;2023-04-28T07:22:11;97591.25;;;10.90;73.35
38912;BME280;28444;48.056;14.408;2023-04-28T07:24:58;97591.72;;;11.14;70.81
38912;BME280;28444;48.056;14.408;2023-04-28T07:27:45;97585.75;;;11.25;71.65
38912;BME280;28444;48.056;14.408;2023-04-28T07:30:33;97605.16;;;11.19;73.97
38912;BME280;28444;48.056;14.408;2023-04-28T07:33:20;97599.28;;;11.23;72.14
38912;BME280;28444;48.056;14.408;2023-04-28T07:36:07;97595.06;;;11.22;73.44
38912;BME280;28444;48.056;14.408;2023-04-28T07:38:54;97585.34;;;11.28;72.21
38912;BME280;28444;48.056;14.408;2023-04-28T07:41:41;97586.28;;;11.41;70.54
38912;BME280;28444;48.056;14.408;2023-04-28T07:44:28;97590.63;;;11.44;72.41
38912;BME280;28444;48.056;14.408;2023-04-28T07:47:15;97600.38;;;11.64;72.93
38912;BME280;28444;48.056;14.408;2023-04-28T07:50:03;97583.91;;;11.81;71.92
38912;BME280;28444;48.056;14.408;2023-04-28T07:52:52;97574.25;;;11.80;72.38
38912;BME280;28444;48.056;14.408;2023-04-28T07:55:39;97577.09;;;12.00;71.26
38912;BME280;28444;48.056;14.408;2023-04-28T07:58:30;97574.47;;;11.92;71.70
38912;BME280;28444;48.056;14.408;2023-04-28T08:01:17;97577.69;;;12.08;71.98
38912;BME280;28444;48.056;14.408;2023-04-28T08:04:04;97578.00;;;12.22;71.05
38912;BME280;28444;48.056;14.408;2023-04-28T08:06:52;97577.47;;;12.33;68.55
38912;BME280;28444;48.056;14.408;2023-04-28T08:09:39;97574.63;;;12.50;69.53
38912;BME280;28444;48.056;14.408;2023-04-28T08:12:29;97566.84;;;12.66;70.56
38912;BME280;28444;48.056;14.408;2023-04-28T08:15:17;97563.38;;;12.66;70.33
38912;BME280;28444;48.056;14.408;2023-04-28T08:18:04;97567.28;;;12.72;69.61
38912;BME280;28444;48.056;14.408;2023-04-28T08:20:51;97559.03;;;12.72;69.64
38912;BME280;28444;48.056;14.408;2023-04-28T08:23:38;97562.66;;;12.85;69.49
38912;BME280;28444;48.056;14.408;2023-04-28T08:26:25;97572.34;;;12.86;69.62
38912;BME280;28444;48.056;14.408;2023-04-28T08:29:12;97561.94;;;12.94;69.36
38912;BME280;28444;48.056;14.408;2023-04-28T08:31:59;97561.06;;;12.91;69.39
38912;BME280;28444;48.056;14.408;2023-04-28T08:34:50;97555.00;;;12.93;69.09
38912;BME280;28444;48.056;14.408;2023-04-28T08:37:37;97554.84;;;13.10;69.72
38912;BME280;28444;48.056;14.408;2023-04-28T08:40:24;97550.06;;;13.20;67.66
38912;BME280;28444;48.056;14.408;2023-04-28T08:43:12;97546.63;;;13.30;68.70
38912;BME280;28444;48.056;14.408;2023-04-28T08:46:05;97541.97;;;13.32;65.75
38912;BME280;28444;48.056;14.408;2023-04-28T08:48:57;97543.84;;;13.20;65.79
38912;BME280;28444;48.056;14.408;2023-04-28T08:51:54;97533.88;;;13.44;67.32
38912;BME280;28444;48.056;14.408;2023-04-28T08:54:43;97531.06;;;13.63;66.40
38912;BME280;28444;48.056;14.408;2023-04-28T08:57:42;97528.91;;;13.52;64.63
38912;BME280;28444;48.056;14.408;2023-04-28T09:00:30;97523.31;;;13.81;65.85
38912;BME280;28444;48.056;14.408;2023-04-28T09:03:18;97527.34;;;14.11;67.41
38912;BME280;28444;48.056;14.408;2023-04-28T09:06:05;97523.03;;;14.08;63.25
38912;BME280;28444;48.056;14.408;2023-04-28T09:08:52;97521.81;;;14.21;64.50
38912;BME280;28444;48.056;14.408;2023-04-28T09:11:50;97526.84;;;14.25;66.71
38912;BME280;28444;48.056;14.408;2023-04-28T09:14:38;97520.44;;;14.32;65.17
38912;BME280;28444;48.056;14.408;2023-04-28T09:17:25;97512.84;;;14.20;65.24
38912;BME280;28444;48.056;14.408;2023-04-28T09:20:22;97507.59;;;14.03;65.77
38912;BME280;28444;48.056;14.408;2023-04-28T09:23:20;97497.53;;;14.17;67.81
38912;BME280;28444;48.056;14.408;2023-04-28T09:26:07;97497.53;;;14.17;66.50
38912;BME280;28444;48.056;14.408;2023-04-28T09:29:10;97491.06;;;14.34;68.26
38912;BME280;28444;48.056;14.408;2023-04-28T09:32:16;97496.22;;;14.40;67.32
38912;BME280;28444;48.056;14.408;2023-04-28T09:35:04;97494.78;;;14.39;66.14
38912;BME280;28444;48.056;14.408;2023-04-28T09:37:57;97491.50;;;14.31;66.31
38912;BME280;28444;48.056;14.408;2023-04-28T09:41:01;97485.59;;;14.46;67.07
38912;BME280;28444;48.056;14.408;2023-04-28T09:43:49;97487.34;;;14.41;64.49
38912;BME280;28444;48.056;14.408;2023-04-28T09:46:36;97475.88;;;14.45;67.06
38912;BME280;28444;48.056;14.408;2023-04-28T09:49:23;97476.09;;;14.59;65.42
38912;BME280;28444;48.056;14.408;2023-04-28T09:52:13;97466.25;;;14.77;67.29
38912;BME280;28444;48.056;14.408;2023-04-28T09:55:04;97477.16;;;14.87;64.10
38912;BME280;28444;48.056;14.408;2023-04-28T09:57:53;97474.09;;;14.92;64.97
38912;BME280;28444;48.056;14.408;2023-04-28T10:00:40;97468.06;;;14.84;62.81
38912;BME280;28444;48.056;14.408;2023-04-28T10:03:29;97472.81;;;14.72;65.30
38912;BME280;28444;48.056;14.408;2023-04-28T10:06:16;97466.28;;;14.56;66.26
38912;BME280;28444;48.056;14.408;2023-04-28T10:09:04;97465.31;;;14.51;67.76
38912;BME280;28444;48.056;14.408;2023-04-28T10:11:51;97466.81;;;14.42;68.98
38912;BME280;28444;48.056;14.408;2023-04-28T10:14:40;97462.59;;;14.41;65.08
38912;BME280;28444;48.056;14.408;2023-04-28T10:17:28;97461.31;;;14.21;67.06
38912;BME280;28444;48.056;14.408;2023-04-28T10:20:15;97461.25;;;14.09;68.78
38912;BME280;28444;48.056;14.408;2023-04-28T10:29:51;97442.31;;;13.82;70.96
38912;BME280;28444;48.056;14.408;2023-04-28T10:32:39;97442.22;;;13.70;71.09
38912;BME280;28444;48.056;14.408;2023-04-28T10:35:47;97444.56;;;13.64;69.02
38912;BME280;28444;48.056;14.408;2023-04-28T10:38:34;97439.66;;;13.63;68.79
38912;BME280;28444;48.056;14.408;2023-04-28T10:41:31;97435.78;;;13.56;68.82
38912;BME280;28444;48.056;14.408;2023-04-28T10:44:48;97440.84;;;13.60;69.48
38912;BME280;28444;48.056;14.408;2023-04-28T10:48:00;97433.31;;;13.60;70.31
38912;BME280;28444;48.056;14.408;2023-04-28T10:51:27;97433.50;;;13.53;70.16
38912;BME280;28444;48.056;14.408;2023-04-28T10:54:14;97435.06;;;13.56;67.99
38912;BME280;28444;48.056;14.408;2023-04-28T10:57:14;97429.00;;;13.57;68.82
38912;BME280;28444;48.056;14.408;2023-04-28T11:00:27;97435.53;;;13.52;70.06
38912;BME280;28444;48.056;14.408;2023-04-28T11:07:09;97425.03;;;13.39;71.28
38912;BME280;28444;48.056;14.408;2023-04-28T11:09:58;97425.44;;;13.45;70.03
38912;BME280;28444;48.056;14.408;2023-04-28T11:13:24;97427.19;;;13.40;71.39
38912;BME280;28444;48.056;14.408;2023-04-28T11:16:18;97440.66;;;13.36;71.54
38912;BME280;28444;48.056;14.408;2023-04-28T11:19:07;97432.50;;;13.48;70.77
38912;BME280;28444;48.056;14.408;2023-04-28T11:21:58;97437.75;;;13.44;70.87
38912;BME280;28444;48.056;14.408;2023-04-28T11:25:04;97441.50;;;13.39;73.11
38912;BME280;28444;48.056;14.408;2023-04-28T11:27:51;97454.84;;;13.33;73.84
38912;BME280;28444;48.056;14.408;2023-04-28T11:30:38;97447.75;;;13.30;74.12
38912;BME280;28444;48.056;14.408;2023-04-28T11:33:26;97453.66;;;13.36;76.29
38912;BME280;28444;48.056;14.408;2023-04-28T11:36:35;97464.97;;;13.30;75.72
38912;BME280;28444;48.056;14.408;2023-04-28T11:39:29;97467.00;;;13.30;77.16
38912;BME280;28444;48.056;14.408;2023-04-28T11:42:16;97467.09;;;13.32;77.87
38912;BME280;28444;48.056;14.408;2023-04-28T11:45:04;97471.88;;;13.31;73.86
38912;BME280;28444;48.056;14.408;2023-04-28T11:47:52;97480.00;;;13.29;75.68
38912;BME280;28444;48.056;14.408;2023-04-28T11:50:39;97486.66;;;13.26;77.74
38912;BME280;28444;48.056;14.408;2023-04-28T11:53:59;97482.31;;;13.33;75.90
38912;BME280;28444;48.056;14.408;2023-04-28T11:56:46;97493.56;;;13.27;76.37
38912;BME280;28444;48.056;14.408;2023-04-28T11:59:34;97484.75;;;13.29;76.32
38912;BME280;28444;48.056;14.408;2023-04-28T12:02:25;97495.59;;;13.27;76.25
38912;BME280;28444;48.056;14.408;2023-04-28T12:05:16;97492.00;;;13.24;77.15
38912;BME280;28444;48.056;14.408;2023-04-28T12:08:03;97498.06;;;13.22;77.26
38912;BME280;28444;48.056;14.408;2023-04-28T12:11:10;97496.75;;;13.14;78.69
38912;BME280;28444;48.056;14.408;2023-04-28T12:14:04;97495.91;;;13.11;79.41
38912;BME280;28444;48.056;14.408;2023-04-28T12:16:52;97504.16;;;13.11;79.14
38912;BME280;28444;48.056;14.408;2023-04-28T12:19:42;97509.75;;;13.13;81.15
38912;BME280;28444;48.056;14.408;2023-04-28T12:22:46;97522.06;;;13.12;81.82
38912;BME280;28444;48.056;14.408;2023-04-28T12:25:42;97512.81;;;12.98;81.06
38912;BME280;28444;48.056;14.408;2023-04-28T12:28:38;97514.13;;;12.97;81.76
38912;BME280;28444;48.056;14.408;2023-04-28T12:31:26;97514.97;;;12.99;81.97
38912;BME280;28444;48.056;14.408;2023-04-28T12:34:13;97519.47;;;12.95;83.19
38912;BME280;28444;48.056;14.408;2023-04-28T12:37:03;97526.81;;;12.92;82.59
38912;BME280;28444;48.056;14.408;2023-04-28T12:39:51;97525.53;;;12.84;83.80
38912;BME280;28444;48.056;14.408;2023-04-28T12:42:38;97530.88;;;12.82;84.43
38912;BME280;28444;48.056;14.408;2023-04-28T12:45:24;97527.41;;;12.81;83.55
38912;BME280;28444;48.056;14.408;2023-04-28T12:48:11;97533.19;;;12.85;85.86
38912;BME280;28444;48.056;14.408;2023-04-28T12:50:58;97532.47;;;12.85;85.77
38912;BME280;28444;48.056;14.408;2023-04-28T12:53:45;97523.50;;;12.84;85.06
38912;BME280;28444;48.056;14.408;2023-04-28T12:56:32;97527.25;;;12.89;85.43
38912;BME280;28444;48.056;14.408;2023-04-28T12:59:20;97526.56;;;12.79;87.22
38912;BME280;28444;48.056;14.408;2023-04-28T13:02:08;97524.69;;;12.71;87.53
38912;BME280;28444;48.056;14.408;2023-04-28T13:04:56;97515.84;;;12.63;88.49
38912;BME280;28444;48.056;14.408;2023-04-28T13:07:43;97516.59;;;12.54;89.32
38912;BME280;28444;48.056;14.408;2023-04-28T13:10:30;97513.41;;;12.48;89.29
38912;BME280;28444;48.056;14.408;2023-04-28T13:13:18;97510.81;;;12.50;88.98
38912;BME280;28444;48.056;14.408;2023-04-28T13:16:05;97508.63;;;12.48;90.46
38912;BME280;28444;48.056;14.408;2023-04-28T13:18:52;97512.97;;;12.51;90.39
38912;BME280;28444;48.056;14.408;2023-04-28T13:21:40;97507.06;;;12.55;90.68
38912;BME280;28444;48.056;14.408;2023-04-28T13:24:28;97502.72;;;12.52;90.34
38912;BME280;28444;48.056;14.408;2023-04-28T13:27:15;97500.41;;;12.48;91.57
38912;BME280;28444;48.056;14.408;2023-04-28T13:30:02;97496.38;;;12.40;90.59
38912;BME280;28444;48.056;14.408;2023-04-28T13:32:51;97498.53;;;12.41;91.38
38912;BME280;28444;48.056;14.408;2023-04-28T13:35:38;97489.16;;;12.44;92.21
38912;BME280;28444;48.056;14.408;2023-04-28T13:38:25;97468.66;;;12.36;93.98
38912;BME280;28444;48.056;14.408;2023-04-28T13:41:12;97461.44;;;12.21;93.59
38912;BME280;28444;48.056;14.408;2023-04-28T13:43:59;97470.41;;;12.31;93.19
38912;BME280;28444;48.056;14.408;2023-04-28T13:46:46;97473.44;;;12.35;92.45
38912;BME280;28444;48.056;14.408;2023-04-28T13:49:34;97467.38;;;12.37;93.20
38912;BME280;28444;48.056;14.408;2023-04-28T13:52:23;97441.53;;;12.40;93.71
38912;BME280;28444;48.056;14.408;2023-04-28T13:55:10;97430.41;;;12.38;93.73
38912;BME280;28444;48.056;14.408;2023-04-28T13:57:57;97424.50;;;12.32;94.89
38912;BME280;28444;48.056;14.408;2023-04-28T14:00:48;97410.78;;;12.22;93.65
38912;BME280;28444;48.056;14.408;2023-04-28T14:03:35;97373.00;;;12.11;95.49
38912;BME280;28444;48.056;14.408;2023-04-28T14:06:23;97377.19;;;11.92;96.56
38912;BME280;28444;48.056;14.408;2023-04-28T14:09:10;97367.53;;;11.91;97.94
38912;BME280;28444;48.056;14.408;2023-04-28T14:11:57;97374.88;;;11.98;97.46
38912;BME280;28444;48.056;14.408;2023-04-28T14:14:45;97380.34;;;12.08;97.45
38912;BME280;28444;48.056;14.408;2023-04-28T14:17:34;97398.25;;;12.09;96.92
38912;BME280;28444;48.056;14.408;2023-04-28T14:20:22;97393.63;;;12.12;98.77
38912;BME280;28444;48.056;14.408;2023-04-28T14:23:09;97403.16;;;12.11;98.02
38912;BME280;28444;48.056;14.408;2023-04-28T14:25:56;97395.34;;;12.07;96.93
38912;BME280;28444;48.056;14.408;2023-04-28T14:28:43;97395.22;;;12.15;97.68
38912;BME280;28444;48.056;14.408;2023-04-28T14:31:30;97398.38;;;12.11;97.42
38912;BME280;28444;48.056;14.408;2023-04-28T14:34:17;97397.50;;;12.09;95.95
38912;BME280;28444;48.056;14.408;2023-04-28T14:37:05;97398.97;;;12.19;98.17
38912;BME280;28444;48.056;14.408;2023-04-28T14:39:52;97404.03;;;12.13;98.31
38912;BME280;28444;48.056;14.408;2023-04-28T14:42:39;97400.84;;;11.88;100.00
38912;BME280;28444;48.056;14.408;2023-04-28T14:45:26;97405.38;;;11.75;100.00
38912;BME280;28444;48.056;14.408;2023-04-28T14:48:13;97407.50;;;11.57;100.00
38912;BME280;28444;48.056;14.408;2023-04-28T14:51:01;97400.59;;;11.56;100.00
38912;BME280;28444;48.056;14.408;2023-04-28T14:53:48;97389.75;;;11.49;100.00
38912;BME280;28444;48.056;14.408;2023-04-28T14:56:35;97402.31;;;11.52;100.00
38912;BME280;28444;48.056;14.408;2023-04-28T14:59:22;97407.50;;;11.48;100.00